»·PEaware :: SWA5645 KSNA-KSMF

SWA5645 :: KSNA-KSMF

FLIGHT INFORMATION

Flight Status: Arrived
Operator:
Southwest Airlines
More flights by this operator :: More flights under this callsign
Pilot: Ben F. (2808)
Aircraft: BOEING 737-800
(B738)
More flights by this aircraft type
Origin: KSNA John Wayne-Orange Co
United States
Destination: KSMF Sacramento Intl
United States
More flights between these airports :: More routes between these airports
Route: HHERO3 EHF NURAY SUUTR2
File this flight plan on PilotEdge
Remarks:
Altitude:
(Current/Filed)
34,000ft
Speed:
(Current/Filed)
460kts
Departed: 16-Nov-19 08:28 AM
Arrived: 16-Nov-19 09:43 AM
Distance/Time
Traveled:
351nm/1:15
Distance/Time
To Go:
Arrived

Flight Plot

Page will automatically refresh every two minutes.

Flight plan parsing failed; only flown route is shown


Map Options




Map Legend


Flown Route
Filed Route
Departure Airport
Arrival Airport
Navaid (VOR, NDB)
Fix

Horizontal Profiles

Position Reports

Time Latitude Longitude Heading Altitude Ground
Speed
16-Nov-19 08:01 33.674987 -117.865073 118 64ft 0kts
16-Nov-19 08:02 33.674987 -117.865073 118 64ft 0kts
16-Nov-19 08:03 33.674987 -117.865073 118 64ft 0kts
16-Nov-19 08:04 33.674987 -117.865073 118 64ft 0kts
16-Nov-19 08:05 33.674987 -117.865073 118 64ft 0kts
16-Nov-19 08:06 33.674987 -117.865073 118 64ft 0kts
16-Nov-19 08:07 33.674987 -117.865073 118 64ft 0kts
16-Nov-19 08:08 33.674987 -117.865073 118 64ft 0kts
16-Nov-19 08:09 33.674987 -117.865073 118 64ft 0kts
16-Nov-19 08:10 33.674987 -117.865073 118 64ft 0kts
16-Nov-19 08:11 33.674987 -117.865073 118 64ft 0kts
16-Nov-19 08:12 33.674987 -117.865073 118 64ft 0kts
16-Nov-19 08:13 33.674987 -117.865073 118 64ft 0kts
16-Nov-19 08:14 33.674987 -117.865073 118 64ft 0kts
16-Nov-19 08:15 33.674987 -117.865073 118 64ft 0kts
16-Nov-19 08:16 33.674987 -117.865073 118 64ft 0kts
16-Nov-19 08:17 33.674987 -117.865073 118 64ft 0kts
16-Nov-19 08:18 33.674987 -117.865073 118 64ft 0kts
16-Nov-19 08:19 33.674987 -117.865073 118 64ft 0kts
16-Nov-19 08:20 33.674986 -117.865072 118 64ft 0kts
16-Nov-19 08:21 33.675132 -117.865406 107 64ft 3kts
16-Nov-19 08:22 33.675497 -117.865542 15 64ft 0kts
16-Nov-19 08:23 33.675965 -117.865312 27 64ft 17kts
16-Nov-19 08:24 33.680473 -117.862866 317 64ft 10kts
16-Nov-19 08:25 33.681130 -117.864244 298 64ft 0kts
16-Nov-19 08:26 33.681243 -117.865366 204 64ft 6kts
16-Nov-19 08:27 33.660857 -117.878342 208 629ft 174kts
16-Nov-19 08:28 33.610189 -117.893646 186 3156ft 234kts
16-Nov-19 08:29 33.544445 -117.928980 222 6012ft 282kts
16-Nov-19 08:30 33.486453 -117.996083 227 8001ft 295kts
16-Nov-19 08:31 33.441952 -118.080563 239 10601ft 306kts
16-Nov-19 08:32 33.416148 -118.185786 278 12198ft 373kts
16-Nov-19 08:33 33.443765 -118.307727 293 14990ft 386kts
16-Nov-19 08:34 33.493452 -118.423686 300 17655ft 397kts
16-Nov-19 08:35 33.582665 -118.484825 7 20033ft 387kts
16-Nov-19 08:36 33.689878 -118.464990 8 22291ft 395kts
16-Nov-19 08:37 33.801163 -118.458857 2 24244ft 406kts
16-Nov-19 08:38 33.914661 -118.459677 3 26094ft 410kts
16-Nov-19 08:39 34.029606 -118.462978 358 27771ft 417kts
16-Nov-19 08:40 34.145182 -118.481436 357 29258ft 421kts
16-Nov-19 08:41 34.260047 -118.499423 357 31106ft 412kts
16-Nov-19 08:42 34.373179 -118.516898 356 32681ft 407kts
16-Nov-19 08:44 34.480288 -118.533423 356 34054ft 404kts
16-Nov-19 08:45 34.591951 -118.550738 356 34198ft 402kts
16-Nov-19 08:46 34.702707 -118.567936 356 34231ft 400kts
16-Nov-19 08:47 34.813124 -118.585131 356 34256ft 399kts
16-Nov-19 08:48 34.923065 -118.602350 356 34262ft 399kts
16-Nov-19 08:49 35.029931 -118.638930 331 34268ft 415kts
16-Nov-19 08:50 35.121199 -118.726776 327 34266ft 419kts
16-Nov-19 08:51 35.210961 -118.818015 327 34255ft 419kts
16-Nov-19 08:52 35.300513 -118.908607 327 34250ft 419kts
16-Nov-19 08:53 35.389810 -119.000002 327 34249ft 418kts
16-Nov-19 08:54 35.480159 -119.088892 334 34249ft 411kts
16-Nov-19 08:55 35.581807 -119.149261 341 34253ft 404kts
16-Nov-19 08:56 35.684588 -119.204823 341 34258ft 403kts
16-Nov-19 08:57 35.787397 -119.260407 341 34260ft 403kts
16-Nov-19 08:58 35.890239 -119.315730 341 34262ft 403kts
16-Nov-19 08:59 35.992627 -119.371185 341 34265ft 403kts
16-Nov-19 09:00 36.094769 -119.426715 341 34266ft 401kts
16-Nov-19 09:01 36.196928 -119.482420 341 34265ft 401kts
16-Nov-19 09:02 36.298825 -119.538135 341 34263ft 400kts
16-Nov-19 09:03 36.400665 -119.593826 341 34261ft 400kts
16-Nov-19 09:03 36.485652 -119.640656 341 34263ft 400kts
16-Nov-19 09:05 36.603932 -119.708034 335 34264ft 404kts
16-Nov-19 09:06 36.699462 -119.782526 333 34260ft 405kts
16-Nov-19 09:06 36.778674 -119.844960 333 34260ft 405kts
16-Nov-19 09:08 36.889640 -119.932460 333 34264ft 404kts
16-Nov-19 09:08 36.968816 -119.994596 333 34269ft 402kts
16-Nov-19 09:09 37.063774 -120.069422 333 34270ft 402kts
16-Nov-19 09:10 37.158009 -120.144358 333 32045ft 400kts
16-Nov-19 09:11 37.250172 -120.217882 333 29959ft 386kts
16-Nov-19 09:12 37.340930 -120.290256 332 27836ft 389kts
16-Nov-19 09:13 37.430487 -120.362123 331 25623ft 376kts
16-Nov-19 09:14 37.514361 -120.437483 324 23512ft 370kts
16-Nov-19 09:15 37.593831 -120.518213 324 21395ft 364kts
16-Nov-19 09:16 37.671069 -120.595565 324 20220ft 349kts
16-Nov-19 09:17 37.747458 -120.672419 323 19108ft 350kts
16-Nov-19 09:18 37.823271 -120.749051 323 17737ft 346kts
16-Nov-19 09:19 37.898096 -120.824422 323 16593ft 342kts
16-Nov-19 09:20 37.971948 -120.899607 323 15479ft 338kts
16-Nov-19 09:21 38.044430 -120.973569 322 14383ft 331kts
16-Nov-19 09:22 38.109243 -121.054292 312 13487ft 312kts
16-Nov-19 09:23 38.164041 -121.136203 313 11987ft 297kts
16-Nov-19 09:24 38.215536 -121.212500 313 11379ft 276kts
16-Nov-19 09:25 38.269698 -121.280910 317 10490ft 273kts
16-Nov-19 09:26 38.323487 -121.348667 316 9601ft 272kts
16-Nov-19 09:27 38.376808 -121.416526 316 8716ft 269kts
16-Nov-19 09:28 38.429235 -121.483425 316 7846ft 265kts
16-Nov-19 09:29 38.481512 -121.549247 320 6959ft 261kts
16-Nov-19 09:30 38.538036 -121.605443 323 6145ft 254kts
16-Nov-19 09:31 38.591981 -121.659847 323 5290ft 241kts
16-Nov-19 09:32 38.650369 -121.687115 355 4639ft 218kts
16-Nov-19 09:33 38.710195 -121.694169 355 3753ft 213kts
16-Nov-19 09:34 38.769426 -121.693073 2 2753ft 213kts
16-Nov-19 09:35 38.827646 -121.689627 2 1978ft 198kts
16-Nov-19 09:36 38.880356 -121.686151 11 2003ft 182kts
16-Nov-19 09:37 38.882102 -121.634390 138 2034ft 188kts
16-Nov-19 09:38 38.838412 -121.599108 169 1987ft 180kts
16-Nov-19 09:39 38.788648 -121.599696 180 1620ft 177kts
16-Nov-19 09:40 38.742960 -121.600484 182 742ft 153kts
16-Nov-19 09:41 38.701990 -121.601174 180 37ft 136kts
16-Nov-19 09:42 38.690326 -121.601271 163 36ft 13kts
16-Nov-19 09:43 38.690046 -121.599561 88 36ft 1kts
16-Nov-19 09:44 38.690302 -121.597997 23 36ft 8kts
16-Nov-19 09:45 38.693280 -121.597897 0 36ft 10kts
16-Nov-19 09:46 38.694779 -121.595641 30 36ft 8kts
16-Nov-19 09:47 38.696702 -121.594300 143 36ft 5kts
16-Nov-19 09:48 38.696380 -121.594320 180 36ft 0kts
16-Nov-19 09:49 38.696380 -121.594320 180 36ft 0kts
16-Nov-19 09:50 38.696380 -121.594320 180 36ft 0kts
16-Nov-19 09:51 38.696380 -121.594320 180 36ft 0kts
16-Nov-19 09:52 38.696380 -121.594320 180 36ft 0kts
16-Nov-19 09:53 38.696380 -121.594320 180 36ft 0kts
16-Nov-19 09:54 38.696380 -121.594320 180 36ft 0kts
16-Nov-19 09:55 38.696380 -121.594320 180 36ft 0kts

Navigation Log

Ident Type
Flight plan parsing failed, navigation log unavailable